createdAt,value
2023-05-10T00:00:05.936Z,2.28
2023-05-10T00:03:08.893Z,2.37
2023-05-10T00:06:11.796Z,2.08
2023-05-10T00:09:14.988Z,1.85
2023-05-10T00:12:17.644Z,2.20
2023-05-10T00:15:20.304Z,2.10
2023-05-10T00:18:22.991Z,1.80
2023-05-10T00:21:25.647Z,1.95
2023-05-10T00:24:28.305Z,2.22
2023-05-10T00:27:31.048Z,2.60
2023-05-10T00:30:33.687Z,2.08
2023-05-10T00:33:36.260Z,2.30
2023-05-10T00:36:38.867Z,2.30
2023-05-10T00:39:41.528Z,2.40
2023-05-10T00:42:47.173Z,2.25
2023-05-10T00:45:49.998Z,2.30
2023-05-10T00:48:53.118Z,2.20
2023-05-10T00:51:55.942Z,2.35
2023-05-10T00:54:58.718Z,2.28
2023-05-10T00:58:01.562Z,2.40
2023-05-10T01:01:04.288Z,2.45
2023-05-10T01:04:07.115Z,2.80
2023-05-10T01:07:09.735Z,2.40
2023-05-10T01:10:12.959Z,2.50
2023-05-10T01:13:21.333Z,2.50
2023-05-10T01:16:25.476Z,2.65
2023-05-10T01:19:29.923Z,2.60
2023-05-10T01:23:18.706Z,2.62
2023-05-10T01:26:27.687Z,2.95
2023-05-10T01:30:14.689Z,2.65
2023-05-10T01:33:24.682Z,2.45
2023-05-10T01:36:41.615Z,3.00
2023-05-10T01:39:51.540Z,3.65
2023-05-10T01:42:56.622Z,3.67
2023-05-10T01:46:11.743Z,3.40
2023-05-10T01:49:27.745Z,4.00
2023-05-10T01:52:43.386Z,3.93
2023-05-10T01:55:48.129Z,4.28
2023-05-10T01:58:51.176Z,4.03
2023-05-10T02:01:54.346Z,4.15
2023-05-10T02:04:58.549Z,4.15
2023-05-10T02:08:02.499Z,4.10
2023-05-10T02:11:06.692Z,4.07
2023-05-10T02:14:10.991Z,4.32
2023-05-10T02:17:14.196Z,4.22
2023-05-10T02:20:18.121Z,4.65
2023-05-10T02:23:21.539Z,4.13
2023-05-10T02:26:25.217Z,4.00
2023-05-10T02:29:28.423Z,4.72
2023-05-10T02:32:31.400Z,4.20
2023-05-10T02:35:34.734Z,4.40
2023-05-10T02:38:37.965Z,4.27
2023-05-10T02:41:42.594Z,4.60
2023-05-10T02:44:48.506Z,4.72
2023-05-10T02:47:51.216Z,4.80
2023-05-10T02:50:54.351Z,4.90
2023-05-10T02:53:57.990Z,4.70
2023-05-10T02:57:02.513Z,4.80
2023-05-10T03:00:06.117Z,5.22
2023-05-10T03:03:09.672Z,5.35
2023-05-10T03:06:12.528Z,5.03
2023-05-10T03:09:16.833Z,4.20
2023-05-10T03:12:58.304Z,4.55
2023-05-10T03:16:13.857Z,5.45
2023-05-10T03:19:26.085Z,5.10
2023-05-10T03:22:53.407Z,5.22
2023-05-10T03:25:56.476Z,5.20
2023-05-10T03:29:00.254Z,5.70
2023-05-10T03:32:03.104Z,5.78
2023-05-10T03:35:13.563Z,5.65
2023-05-10T03:38:16.228Z,5.50
2023-05-10T03:41:18.931Z,4.77
2023-05-10T03:44:21.631Z,5.12
2023-05-10T03:47:24.463Z,5.70
2023-05-10T03:50:27.560Z,5.22
2023-05-10T03:53:30.428Z,5.15
2023-05-10T03:56:33.708Z,5.20
2023-05-10T03:59:37.584Z,5.10
2023-05-10T04:02:40.312Z,5.35
2023-05-10T04:05:43.112Z,5.75
2023-05-10T04:08:45.887Z,5.62
2023-05-10T04:11:48.638Z,5.30
2023-05-10T04:14:52.261Z,5.15
2023-05-10T04:17:54.910Z,6.37
2023-05-10T04:20:57.510Z,5.53
2023-05-10T04:24:00.211Z,5.45
2023-05-10T04:27:03.075Z,5.30
2023-05-10T04:30:06.519Z,5.20
2023-05-10T04:33:09.338Z,4.95
2023-05-10T04:36:12.114Z,5.47
2023-05-10T04:39:17.897Z,5.47
2023-05-10T04:42:20.634Z,5.27
2023-05-10T04:45:23.478Z,5.22
2023-05-10T04:48:26.190Z,5.47
2023-05-10T04:51:28.850Z,5.70
2023-05-10T04:54:31.493Z,5.97
2023-05-10T04:57:34.169Z,5.63
2023-05-10T05:00:36.824Z,5.37
2023-05-10T05:03:39.667Z,5.20
2023-05-10T05:06:42.476Z,6.00
2023-05-10T05:09:48.374Z,5.82
2023-05-10T05:12:51.134Z,6.30
2023-05-10T05:15:54.607Z,5.18
2023-05-10T05:19:00.919Z,5.72
2023-05-10T05:22:03.560Z,5.95
2023-05-10T05:25:07.138Z,5.97
2023-05-10T05:28:09.829Z,6.27
2023-05-10T05:31:15.953Z,5.70
2023-05-10T05:34:18.951Z,5.53
2023-05-10T05:37:25.651Z,6.03
2023-05-10T05:40:28.308Z,5.75
2023-05-10T05:43:31.179Z,6.03
2023-05-10T05:46:33.916Z,5.95
2023-05-10T05:49:36.757Z,6.00
2023-05-10T05:52:39.498Z,6.45
2023-05-10T05:55:42.208Z,6.15
2023-05-10T05:58:45.971Z,5.83
2023-05-10T06:01:48.970Z,5.62
2023-05-10T06:04:51.982Z,6.03
2023-05-10T06:07:54.679Z,5.95
2023-05-10T06:10:59.785Z,5.68
2023-05-10T06:14:03.136Z,5.83
2023-05-10T06:17:07.977Z,6.18
2023-05-10T06:20:11.180Z,6.10
2023-05-10T06:23:13.836Z,5.93
2023-05-10T06:26:16.540Z,6.30
2023-05-10T06:29:19.283Z,5.73
2023-05-10T06:32:22.053Z,5.10
2023-05-10T06:35:25.387Z,5.25
2023-05-10T06:38:28.562Z,5.30
2023-05-10T06:41:31.278Z,5.43
2023-05-10T06:44:34.424Z,5.13
2023-05-10T06:47:38.987Z,5.07
2023-05-10T06:50:42.157Z,4.43
2023-05-10T06:54:04.771Z,4.10
2023-05-10T06:57:16.120Z,3.85
2023-05-10T07:00:26.545Z,4.47
2023-05-10T07:03:29.231Z,4.20
2023-05-10T07:06:35.030Z,3.80
2023-05-10T07:09:37.763Z,4.37
2023-05-10T07:12:40.874Z,4.45
2023-05-10T07:15:43.659Z,4.00
2023-05-10T07:18:46.336Z,3.90
2023-05-10T07:21:49.137Z,4.10
2023-05-10T07:24:51.779Z,4.22
2023-05-10T07:27:54.384Z,3.75
2023-05-10T07:30:57.835Z,3.83
2023-05-10T07:34:00.557Z,3.50
2023-05-10T07:37:03.339Z,3.33
2023-05-10T07:40:06.844Z,3.58
2023-05-10T07:43:09.560Z,3.30
2023-05-10T07:46:12.428Z,3.23
2023-05-10T07:49:15.150Z,3.80
2023-05-10T07:52:17.856Z,3.78
2023-05-10T07:55:22.276Z,3.00
2023-05-10T07:58:25.337Z,3.08
2023-05-10T08:01:28.435Z,2.90
2023-05-10T08:04:31.331Z,3.10
2023-05-10T08:07:34.756Z,3.50
2023-05-10T08:10:37.932Z,3.37
2023-05-10T08:13:43.819Z,3.28
2023-05-10T08:16:46.505Z,3.07
2023-05-10T08:19:49.152Z,3.05
2023-05-10T08:22:52.088Z,2.90
2023-05-10T08:25:54.708Z,3.00
2023-05-10T08:28:57.363Z,3.00
2023-05-10T08:32:00.015Z,3.23
2023-05-10T08:35:06.199Z,2.70
2023-05-10T08:38:08.857Z,3.17
2023-05-10T08:41:12.474Z,3.33
2023-05-10T08:44:15.486Z,3.30
2023-05-10T08:47:19.566Z,3.40
2023-05-10T08:50:23.126Z,3.33
2023-05-10T08:53:29.130Z,3.30
2023-05-10T08:56:31.813Z,4.32
2023-05-10T08:59:34.647Z,3.25
2023-05-10T09:02:38.425Z,3.27
2023-05-10T09:05:42.672Z,3.42
2023-05-10T09:08:46.233Z,3.25
2023-05-10T09:11:49.041Z,3.65
2023-05-10T09:14:53.575Z,3.17
2023-05-10T09:17:56.660Z,3.20
2023-05-10T09:20:59.338Z,3.00
2023-05-10T09:24:05.802Z,3.37
2023-05-10T09:27:08.378Z,3.30
2023-05-10T09:30:11.565Z,2.95
2023-05-10T09:33:14.256Z,2.70
2023-05-10T09:36:17.394Z,3.10
2023-05-10T09:39:20.179Z,3.10
2023-05-10T09:42:24.462Z,3.33
2023-05-10T09:45:29.532Z,3.20
2023-05-10T09:48:32.528Z,3.00
2023-05-10T09:51:36.926Z,2.90
2023-05-10T09:54:49.128Z,2.75
2023-05-10T09:58:01.861Z,2.60
2023-05-10T10:01:04.986Z,2.87
2023-05-10T10:04:09.985Z,2.43
2023-05-10T10:07:12.759Z,2.65
2023-05-10T10:10:15.749Z,2.67
2023-05-10T10:13:18.757Z,2.30
2023-05-10T10:16:21.924Z,2.40
2023-05-10T10:19:24.676Z,2.70
2023-05-10T10:22:27.338Z,2.95
2023-05-10T10:25:30.451Z,7.05
2023-05-10T10:29:01.728Z,2.87
2023-05-10T10:32:12.211Z,2.60
2023-05-10T10:35:15.080Z,2.83
2023-05-10T10:38:18.569Z,2.55
2023-05-10T10:41:33.437Z,2.40
2023-05-10T10:44:39.143Z,2.40
2023-05-10T10:47:44.402Z,2.72
2023-05-10T10:50:50.357Z,2.40
2023-05-10T10:53:53.044Z,2.10
2023-05-10T10:57:24.604Z,2.20
2023-05-10T11:00:32.639Z,2.42
2023-05-10T11:03:35.235Z,4.55
2023-05-10T11:06:38.053Z,7.43
2023-05-10T11:09:41.529Z,5.45
2023-05-10T11:12:53.447Z,3.50
2023-05-10T11:15:56.178Z,2.70
2023-05-10T11:19:02.975Z,3.22
2023-05-10T11:22:06.019Z,3.03
2023-05-10T11:25:11.953Z,2.58
2023-05-10T11:28:14.772Z,2.90
2023-05-10T11:31:18.724Z,2.90
2023-05-10T11:34:26.075Z,3.10
2023-05-10T11:37:33.533Z,2.90
2023-05-10T11:40:37.117Z,2.75
2023-05-10T11:43:41.155Z,3.30
2023-05-10T11:46:44.121Z,3.60
2023-05-10T11:49:47.574Z,4.93
2023-05-10T11:52:54.086Z,2.80
2023-05-10T11:55:56.882Z,2.83
2023-05-10T11:58:59.810Z,2.60
2023-05-10T12:02:02.432Z,3.00
2023-05-10T12:05:06.632Z,2.70
2023-05-10T12:08:16.610Z,2.50
2023-05-10T12:11:20.513Z,2.55
2023-05-10T12:14:23.675Z,2.75
2023-05-10T12:17:29.217Z,2.50
2023-05-10T12:20:32.079Z,2.70
2023-05-10T12:23:34.725Z,2.37
2023-05-10T12:29:55.872Z,2.58
2023-05-10T12:33:10.312Z,4.95
2023-05-10T12:36:15.582Z,4.85
2023-05-10T12:39:18.173Z,6.67
2023-05-10T12:42:22.075Z,6.97
2023-05-10T12:45:27.510Z,3.10
2023-05-10T12:48:32.220Z,2.60
2023-05-10T12:51:34.738Z,2.97
2023-05-10T12:54:37.397Z,2.40
2023-05-10T12:57:40.012Z,2.70
2023-05-10T13:00:42.612Z,2.78
2023-05-10T13:03:45.427Z,2.60
2023-05-10T13:06:48.115Z,2.70
2023-05-10T13:09:53.683Z,2.37
2023-05-10T13:12:56.444Z,2.50
2023-05-10T13:15:59.085Z,2.40
2023-05-10T13:19:01.750Z,2.50
2023-05-10T13:22:04.436Z,3.50
2023-05-10T13:25:07.176Z,4.03
2023-05-10T13:28:09.807Z,4.25
2023-05-10T13:31:12.445Z,3.90
2023-05-10T13:34:15.098Z,4.20
2023-05-10T13:37:17.662Z,2.80
2023-05-10T13:40:20.486Z,3.00
2023-05-10T13:43:23.186Z,2.90
2023-05-10T13:46:25.891Z,2.62
2023-05-10T13:49:28.542Z,2.70
2023-05-10T13:52:31.297Z,3.10
2023-05-10T13:55:34.796Z,2.93
2023-05-10T13:58:37.552Z,4.85
2023-05-10T14:01:40.168Z,3.30
2023-05-10T14:04:42.793Z,2.80
2023-05-10T14:07:45.378Z,2.80
2023-05-10T14:10:48.056Z,3.13
2023-05-10T14:13:50.688Z,2.83
2023-05-10T14:16:53.361Z,2.60
2023-05-10T14:19:55.961Z,2.60
2023-05-10T14:23:00.846Z,3.00
2023-05-10T14:26:05.058Z,2.90
2023-05-10T14:29:09.946Z,2.70
2023-05-10T14:32:17.910Z,2.70
2023-05-10T14:35:22.165Z,2.45
2023-05-10T14:38:25.434Z,2.50
2023-05-10T14:41:28.982Z,2.70
2023-05-10T14:44:31.708Z,2.60
2023-05-10T14:47:34.413Z,2.83
2023-05-10T14:50:37.641Z,2.60
2023-05-10T14:53:40.315Z,2.60
2023-05-10T14:56:42.969Z,2.80
2023-05-10T14:59:45.741Z,2.40
2023-05-10T15:02:49.504Z,2.50
2023-05-10T15:05:53.167Z,2.40
2023-05-10T15:08:55.712Z,2.70
2023-05-10T15:11:58.312Z,2.50
2023-05-10T15:15:01.020Z,2.35
2023-05-10T15:18:03.861Z,2.37
2023-05-10T15:21:06.421Z,2.45
2023-05-10T15:24:09.744Z,2.50
2023-05-10T15:27:12.673Z,2.50
2023-05-10T15:30:15.622Z,2.70
2023-05-10T15:33:18.884Z,2.37
2023-05-10T15:36:21.973Z,2.30
2023-05-10T15:39:24.570Z,2.17
2023-05-10T15:42:27.167Z,2.27
2023-05-10T15:45:29.840Z,2.20
2023-05-10T15:48:32.624Z,2.42
2023-05-10T15:51:36.621Z,2.12
2023-05-10T15:54:39.888Z,2.08
2023-05-10T15:57:44.136Z,2.20
2023-05-10T16:00:46.870Z,2.30
2023-05-10T16:03:49.572Z,2.50
2023-05-10T16:06:52.386Z,2.70
2023-05-10T16:09:55.090Z,2.40
2023-05-10T16:12:57.802Z,2.40
2023-05-10T16:16:01.816Z,2.10
2023-05-10T16:19:04.738Z,2.40
2023-05-10T16:22:07.881Z,2.40
2023-05-10T16:25:12.712Z,2.60
2023-05-10T16:28:16.206Z,3.03
2023-05-10T16:31:20.159Z,2.50
2023-05-10T16:34:24.562Z,2.80
2023-05-10T16:37:28.816Z,2.55
2023-05-10T16:40:33.016Z,2.45
2023-05-10T16:43:36.916Z,2.40
2023-05-10T16:46:39.755Z,2.40
2023-05-10T16:49:42.502Z,2.67
2023-05-10T16:52:45.220Z,2.30
2023-05-10T16:55:48.001Z,2.80
2023-05-10T16:58:50.774Z,2.90
2023-05-10T17:01:54.168Z,2.50
2023-05-10T17:04:57.063Z,2.78
2023-05-10T17:08:02.795Z,3.58
2023-05-10T17:11:05.705Z,3.00
2023-05-10T17:14:08.460Z,2.90
2023-05-10T17:17:11.496Z,3.80
2023-05-10T17:20:17.302Z,2.85
2023-05-10T17:23:19.974Z,2.83
2023-05-10T17:26:22.809Z,2.70
2023-05-10T17:29:25.483Z,2.63
2023-05-10T17:32:28.235Z,2.17
2023-05-10T17:35:31.661Z,2.58
2023-05-10T17:38:34.335Z,2.92
2023-05-10T17:41:36.972Z,4.10
2023-05-10T17:44:39.660Z,5.30
2023-05-10T17:47:42.345Z,3.60
2023-05-10T17:50:45.117Z,2.87
2023-05-10T17:53:47.858Z,2.80
2023-05-10T17:56:50.496Z,2.50
2023-05-10T17:59:53.407Z,2.83
2023-05-10T18:02:56.161Z,3.10
2023-05-10T18:05:58.928Z,3.35
2023-05-10T18:09:01.681Z,3.65
2023-05-10T18:12:04.888Z,4.90
2023-05-10T18:15:08.461Z,5.50
2023-05-10T18:18:11.411Z,5.07
2023-05-10T18:21:14.309Z,5.53
2023-05-10T18:24:30.181Z,6.82
2023-05-10T18:27:40.067Z,9.55
2023-05-10T18:30:42.922Z,8.37
2023-05-10T18:33:45.659Z,8.80
2023-05-10T18:36:48.834Z,11.77
2023-05-10T18:39:51.673Z,5.05
2023-05-10T18:42:54.723Z,5.68
2023-05-10T18:45:58.027Z,6.40
2023-05-10T18:49:00.842Z,6.12
2023-05-10T18:52:03.585Z,5.18
2023-05-10T18:55:07.013Z,5.65
2023-05-10T18:58:09.886Z,3.97
2023-05-10T19:01:12.848Z,4.50
2023-05-10T19:04:15.763Z,5.15
2023-05-10T19:07:21.722Z,5.47
2023-05-10T19:10:24.731Z,4.37
2023-05-10T19:13:29.012Z,3.90
2023-05-10T19:16:31.909Z,4.50
2023-05-10T19:19:35.803Z,4.60
2023-05-10T19:25:47.597Z,5.55
2023-05-10T19:28:54.499Z,5.78
2023-05-10T19:31:57.535Z,5.50
2023-05-10T19:35:01.198Z,4.78
2023-05-10T19:38:04.066Z,5.00
2023-05-10T19:41:06.830Z,4.32
2023-05-10T19:44:09.975Z,3.83
2023-05-10T19:47:13.528Z,4.30
2023-05-10T19:50:19.533Z,5.03
2023-05-10T19:53:22.346Z,5.60
2023-05-10T19:56:27.008Z,6.93
2023-05-10T19:59:29.734Z,3.30
2023-05-10T20:02:32.383Z,3.67
2023-05-10T20:05:35.455Z,2.80
2023-05-10T20:08:38.150Z,2.50
2023-05-10T20:11:40.873Z,4.00
2023-05-10T20:14:43.724Z,3.87
2023-05-10T20:17:47.644Z,6.90
2023-05-10T20:20:57.654Z,6.87
2023-05-10T20:24:00.454Z,6.70
2023-05-10T20:27:04.713Z,7.87
2023-05-10T20:30:07.901Z,7.03
2023-05-10T20:33:10.764Z,5.47
2023-05-10T20:36:13.467Z,5.82
2023-05-10T20:39:16.249Z,5.65
2023-05-10T20:42:19.052Z,8.07
2023-05-10T20:45:21.622Z,4.55
2023-05-10T20:48:24.194Z,4.33
2023-05-10T20:51:27.225Z,3.30
2023-05-10T20:54:29.893Z,3.33
2023-05-10T20:57:32.546Z,2.70
2023-05-10T21:00:35.299Z,2.47
2023-05-10T21:03:37.880Z,2.80
2023-05-10T21:06:40.672Z,2.70
2023-05-10T21:09:43.592Z,4.18
2023-05-10T21:12:46.568Z,3.85
2023-05-10T21:15:49.314Z,3.60
2023-05-10T21:18:52.102Z,3.57
2023-05-10T21:21:56.347Z,4.57
2023-05-10T21:24:59.619Z,3.97
2023-05-10T21:28:02.237Z,3.50
2023-05-10T21:31:04.987Z,3.67
2023-05-10T21:34:07.542Z,3.10
2023-05-10T21:37:11.225Z,2.80
2023-05-10T21:40:13.967Z,2.70
2023-05-10T21:43:16.663Z,3.30
2023-05-10T21:46:19.774Z,2.72
2023-05-10T21:49:22.472Z,3.20
2023-05-10T21:52:25.055Z,3.05
2023-05-10T21:55:27.828Z,3.50
2023-05-10T21:58:30.425Z,3.17
2023-05-10T22:01:33.042Z,3.40
2023-05-10T22:04:37.073Z,3.40
2023-05-10T22:07:39.745Z,2.62
2023-05-10T22:10:42.354Z,3.50
2023-05-10T22:13:44.981Z,3.42
2023-05-10T22:16:47.649Z,3.30
2023-05-10T22:19:50.277Z,3.10
2023-05-10T22:22:55.042Z,3.33
2023-05-10T22:26:04.223Z,3.37
2023-05-10T22:29:06.823Z,3.12
2023-05-10T22:32:12.284Z,3.08
2023-05-10T22:35:14.878Z,3.30
2023-05-10T22:38:17.474Z,3.10
2023-05-10T22:41:23.536Z,3.08
2023-05-10T22:44:26.508Z,3.42
2023-05-10T22:47:29.118Z,3.55
2023-05-10T22:50:31.989Z,3.77
2023-05-10T22:53:34.584Z,3.15
2023-05-10T22:56:37.254Z,3.70
2023-05-10T22:59:39.872Z,3.67
2023-05-10T23:02:43.305Z,3.30
2023-05-10T23:05:45.984Z,3.47
2023-05-10T23:08:48.566Z,3.30
2023-05-10T23:11:51.181Z,3.08
2023-05-10T23:14:54.972Z,3.30
2023-05-10T23:18:01.155Z,3.03
2023-05-10T23:21:03.828Z,3.57
2023-05-10T23:24:08.772Z,3.08
2023-05-10T23:27:11.521Z,2.85
2023-05-10T23:30:14.234Z,3.60
2023-05-10T23:33:17.039Z,3.47
2023-05-10T23:36:21.860Z,3.17
2023-05-10T23:39:24.359Z,3.60
2023-05-10T23:42:27.009Z,3.10
2023-05-10T23:45:29.633Z,3.08
2023-05-10T23:48:32.241Z,3.42
2023-05-10T23:51:34.824Z,3.33
2023-05-10T23:54:37.644Z,3.30
2023-05-10T23:57:43.770Z,3.35
